sensor_id;sensor_type;location;lat;lon;timestamp;P1;durP1;ratioP1;P2;durP2;ratioP2
16804;SDS011;8520;50.102;20.010;2023-04-09T16:07:49;19.52;;;18.05;;
16804;SDS011;8520;50.102;20.010;2023-04-09T16:10:17;19.48;;;17.98;;
16804;SDS011;8520;50.102;20.010;2023-04-09T16:12:46;18.87;;;17.47;;
16804;SDS011;8520;50.102;20.010;2023-04-09T16:15:14;19.00;;;17.60;;
16804;SDS011;8520;50.102;20.010;2023-04-09T16:17:42;18.93;;;17.63;;
16804;SDS011;8520;50.102;20.010;2023-04-09T16:20:10;19.43;;;17.83;;
16804;SDS011;8520;50.102;20.010;2023-04-09T16:22:38;18.23;;;16.93;;
16804;SDS011;8520;50.102;20.010;2023-04-09T16:25:08;18.43;;;17.17;;
16804;SDS011;8520;50.102;20.010;2023-04-09T16:27:37;18.13;;;16.83;;
16804;SDS011;8520;50.102;20.010;2023-04-09T16:30:05;19.10;;;17.73;;
16804;SDS011;8520;50.102;20.010;2023-04-09T16:32:34;18.90;;;17.50;;
16804;SDS011;8520;50.102;20.010;2023-04-09T16:35:02;19.17;;;17.87;;
16804;SDS011;8520;50.102;20.010;2023-04-09T16:37:30;19.40;;;17.90;;
16804;SDS011;8520;50.102;20.010;2023-04-09T16:40:00;19.20;;;17.80;;
16804;SDS011;8520;50.102;20.010;2023-04-09T16:42:31;19.80;;;18.40;;
16804;SDS011;8520;50.102;20.010;2023-04-09T16:45:00;20.17;;;18.67;;
16804;SDS011;8520;50.102;20.010;2023-04-09T16:47:29;20.60;;;18.90;;
16804;SDS011;8520;50.102;20.010;2023-04-09T16:49:58;20.40;;;18.80;;
16804;SDS011;8520;50.102;20.010;2023-04-09T16:52:27;20.70;;;19.00;;
16804;SDS011;8520;50.102;20.010;2023-04-09T16:55:06;20.50;;;19.00;;
16804;SDS011;8520;50.102;20.010;2023-04-09T16:57:44;19.90;;;18.40;;
16804;SDS011;8520;50.102;20.010;2023-04-09T17:00:13;22.43;;;20.53;;
16804;SDS011;8520;50.102;20.010;2023-04-09T17:02:42;21.37;;;19.77;;
16804;SDS011;8520;50.102;20.010;2023-04-09T17:05:11;22.60;;;20.70;;
16804;SDS011;8520;50.102;20.010;2023-04-09T17:07:40;21.67;;;20.07;;
16804;SDS011;8520;50.102;20.010;2023-04-09T17:10:09;21.57;;;19.77;;
16804;SDS011;8520;50.102;20.010;2023-04-09T17:12:37;22.20;;;20.50;;
16804;SDS011;8520;50.102;20.010;2023-04-09T17:15:07;22.23;;;20.43;;
16804;SDS011;8520;50.102;20.010;2023-04-09T17:17:37;22.07;;;20.37;;
16804;SDS011;8520;50.102;20.010;2023-04-09T17:20:05;23.10;;;21.30;;
16804;SDS011;8520;50.102;20.010;2023-04-09T17:22:34;25.30;;;23.20;;
16804;SDS011;8520;50.102;20.010;2023-04-09T17:25:03;25.33;;;23.20;;
16804;SDS011;8520;50.102;20.010;2023-04-09T17:27:32;25.27;;;23.27;;
16804;SDS011;8520;50.102;20.010;2023-04-09T17:30:00;24.37;;;22.40;;
16804;SDS011;8520;50.102;20.010;2023-04-09T17:32:31;25.50;;;23.57;;
16804;SDS011;8520;50.102;20.010;2023-04-09T17:34:59;24.67;;;22.53;;
16804;SDS011;8520;50.102;20.010;2023-04-09T17:37:29;25.90;;;23.90;;
16804;SDS011;8520;50.102;20.010;2023-04-09T17:39:57;25.57;;;23.57;;
16804;SDS011;8520;50.102;20.010;2023-04-09T17:42:25;28.27;;;25.87;;
16804;SDS011;8520;50.102;20.010;2023-04-09T17:44:54;26.70;;;24.30;;
16804;SDS011;8520;50.102;20.010;2023-04-09T17:47:23;26.23;;;24.10;;
16804;SDS011;8520;50.102;20.010;2023-04-09T17:49:52;27.93;;;25.53;;
16804;SDS011;8520;50.102;20.010;2023-04-09T17:52:20;30.57;;;27.83;;
16804;SDS011;8520;50.102;20.010;2023-04-09T17:54:48;32.83;;;29.73;;
16804;SDS011;8520;50.102;20.010;2023-04-09T17:57:17;31.17;;;28.30;;
16804;SDS011;8520;50.102;20.010;2023-04-09T17:59:45;31.70;;;28.80;;
16804;SDS011;8520;50.102;20.010;2023-04-09T18:02:14;32.50;;;29.50;;
16804;SDS011;8520;50.102;20.010;2023-04-09T18:04:42;32.10;;;29.00;;
16804;SDS011;8520;50.102;20.010;2023-04-09T18:07:12;29.53;;;26.97;;
16804;SDS011;8520;50.102;20.010;2023-04-09T18:09:40;31.70;;;28.60;;
16804;SDS011;8520;50.102;20.010;2023-04-09T18:12:09;29.37;;;26.63;;
16804;SDS011;8520;50.102;20.010;2023-04-09T18:14:37;30.10;;;27.40;;
16804;SDS011;8520;50.102;20.010;2023-04-09T18:17:05;31.50;;;28.47;;
16804;SDS011;8520;50.102;20.010;2023-04-09T18:19:33;31.60;;;28.90;;
16804;SDS011;8520;50.102;20.010;2023-04-09T18:22:01;32.60;;;29.70;;
16804;SDS011;8520;50.102;20.010;2023-04-09T18:24:31;37.97;;;33.97;;
16804;SDS011;8520;50.102;20.010;2023-04-09T18:26:59;37.17;;;33.97;;
16804;SDS011;8520;50.102;20.010;2023-04-09T18:29:29;48.00;;;43.43;;
16804;SDS011;8520;50.102;20.010;2023-04-09T18:31:57;57.30;;;51.80;;
16804;SDS011;8520;50.102;20.010;2023-04-09T18:34:26;59.67;;;53.40;;
16804;SDS011;8520;50.102;20.010;2023-04-09T18:36:54;43.97;;;39.80;;
16804;SDS011;8520;50.102;20.010;2023-04-09T18:39:22;42.07;;;38.10;;
16804;SDS011;8520;50.102;20.010;2023-04-09T18:41:52;41.00;;;37.37;;
16804;SDS011;8520;50.102;20.010;2023-04-09T18:44:20;39.67;;;36.17;;
16804;SDS011;8520;50.102;20.010;2023-04-09T18:46:48;40.03;;;36.43;;
16804;SDS011;8520;50.102;20.010;2023-04-09T18:49:17;39.00;;;35.50;;
16804;SDS011;8520;50.102;20.010;2023-04-09T18:51:45;41.17;;;37.33;;
16804;SDS011;8520;50.102;20.010;2023-04-09T18:54:13;42.57;;;38.70;;
16804;SDS011;8520;50.102;20.010;2023-04-09T18:56:42;41.20;;;37.53;;
16804;SDS011;8520;50.102;20.010;2023-04-09T18:59:13;41.23;;;37.43;;
16804;SDS011;8520;50.102;20.010;2023-04-09T19:01:41;41.70;;;37.90;;
16804;SDS011;8520;50.102;20.010;2023-04-09T19:04:09;38.47;;;35.20;;
16804;SDS011;8520;50.102;20.010;2023-04-09T19:06:38;37.90;;;34.77;;
16804;SDS011;8520;50.102;20.010;2023-04-09T19:09:06;39.13;;;35.67;;
16804;SDS011;8520;50.102;20.010;2023-04-09T19:11:35;49.30;;;44.73;;
16804;SDS011;8520;50.102;20.010;2023-04-09T19:14:03;45.93;;;41.70;;
16804;SDS011;8520;50.102;20.010;2023-04-09T19:16:32;43.87;;;39.83;;
16804;SDS011;8520;50.102;20.010;2023-04-09T19:19:01;39.50;;;36.20;;
16804;SDS011;8520;50.102;20.010;2023-04-09T19:21:29;37.87;;;34.50;;
16804;SDS011;8520;50.102;20.010;2023-04-09T19:23:57;36.37;;;33.27;;
16804;SDS011;8520;50.102;20.010;2023-04-09T19:26:25;37.80;;;34.23;;
16804;SDS011;8520;50.102;20.010;2023-04-09T19:28:53;36.77;;;33.37;;
16804;SDS011;8520;50.102;20.010;2023-04-09T19:31:22;36.83;;;33.63;;
16804;SDS011;8520;50.102;20.010;2023-04-09T19:33:51;39.10;;;35.60;;
16804;SDS011;8520;50.102;20.010;2023-04-09T19:36:19;39.57;;;36.03;;
16804;SDS011;8520;50.102;20.010;2023-04-09T19:38:49;37.80;;;34.53;;
16804;SDS011;8520;50.102;20.010;2023-04-09T19:41:17;39.77;;;36.37;;
16804;SDS011;8520;50.102;20.010;2023-04-09T19:43:45;37.43;;;34.13;;
16804;SDS011;8520;50.102;20.010;2023-04-09T19:46:13;38.43;;;35.10;;
16804;SDS011;8520;50.102;20.010;2023-04-09T19:48:41;41.10;;;37.50;;
16804;SDS011;8520;50.102;20.010;2023-04-09T19:51:15;45.87;;;41.47;;
16804;SDS011;8520;50.102;20.010;2023-04-09T19:53:44;44.77;;;40.40;;
16804;SDS011;8520;50.102;20.010;2023-04-09T19:56:12;46.63;;;42.07;;
16804;SDS011;8520;50.102;20.010;2023-04-09T19:58:41;37.37;;;34.07;;
16804;SDS011;8520;50.102;20.010;2023-04-09T20:01:10;41.93;;;38.13;;
16804;SDS011;8520;50.102;20.010;2023-04-09T20:03:38;36.73;;;33.40;;
16804;SDS011;8520;50.102;20.010;2023-04-09T20:06:07;37.43;;;34.13;;
16804;SDS011;8520;50.102;20.010;2023-04-09T20:08:37;39.83;;;36.23;;
16804;SDS011;8520;50.102;20.010;2023-04-09T20:11:06;40.60;;;36.77;;
16804;SDS011;8520;50.102;20.010;2023-04-09T20:13:34;40.37;;;36.60;;
16804;SDS011;8520;50.102;20.010;2023-04-09T20:16:02;38.83;;;35.43;;
16804;SDS011;8520;50.102;20.010;2023-04-09T20:18:31;40.57;;;36.63;;
16804;SDS011;8520;50.102;20.010;2023-04-09T20:20:59;39.53;;;36.03;;
16804;SDS011;8520;50.102;20.010;2023-04-09T20:23:27;43.60;;;39.60;;
16804;SDS011;8520;50.102;20.010;2023-04-09T20:25:57;39.07;;;35.57;;
16804;SDS011;8520;50.102;20.010;2023-04-09T20:28:25;40.40;;;36.83;;
16804;SDS011;8520;50.102;20.010;2023-04-09T20:30:53;39.37;;;35.67;;
16804;SDS011;8520;50.102;20.010;2023-04-09T20:33:21;40.00;;;36.40;;
16804;SDS011;8520;50.102;20.010;2023-04-09T20:35:49;39.67;;;36.13;;
16804;SDS011;8520;50.102;20.010;2023-04-09T20:38:18;40.20;;;36.70;;
16804;SDS011;8520;50.102;20.010;2023-04-09T20:40:47;38.37;;;34.67;;
16804;SDS011;8520;50.102;20.010;2023-04-09T20:43:19;37.97;;;34.40;;
16804;SDS011;8520;50.102;20.010;2023-04-09T20:45:47;37.40;;;33.87;;
16804;SDS011;8520;50.102;20.010;2023-04-09T20:48:15;41.23;;;37.63;;
16804;SDS011;8520;50.102;20.010;2023-04-09T20:50:44;42.70;;;38.77;;
16804;SDS011;8520;50.102;20.010;2023-04-09T20:53:12;40.73;;;37.03;;
16804;SDS011;8520;50.102;20.010;2023-04-09T20:55:40;42.03;;;38.43;;
16804;SDS011;8520;50.102;20.010;2023-04-09T20:58:08;45.53;;;41.20;;
16804;SDS011;8520;50.102;20.010;2023-04-09T21:00:38;43.13;;;39.23;;
16804;SDS011;8520;50.102;20.010;2023-04-09T21:03:06;43.53;;;39.73;;
16804;SDS011;8520;50.102;20.010;2023-04-09T21:05:35;45.07;;;41.03;;
16804;SDS011;8520;50.102;20.010;2023-04-09T21:08:03;41.70;;;38.00;;
16804;SDS011;8520;50.102;20.010;2023-04-09T21:10:32;41.63;;;38.13;;
16804;SDS011;8520;50.102;20.010;2023-04-09T21:13:00;44.23;;;40.37;;
16804;SDS011;8520;50.102;20.010;2023-04-09T21:15:28;42.23;;;38.53;;
16804;SDS011;8520;50.102;20.010;2023-04-09T21:17:58;41.00;;;37.70;;
16804;SDS011;8520;50.102;20.010;2023-04-09T21:20:26;43.40;;;39.47;;
16804;SDS011;8520;50.102;20.010;2023-04-09T21:22:54;42.97;;;39.27;;
16804;SDS011;8520;50.102;20.010;2023-04-09T21:25:25;45.43;;;41.23;;
16804;SDS011;8520;50.102;20.010;2023-04-09T21:27:53;43.97;;;40.10;;
16804;SDS011;8520;50.102;20.010;2023-04-09T21:30:22;42.10;;;38.67;;
16804;SDS011;8520;50.102;20.010;2023-04-09T21:32:50;44.23;;;40.40;;
16804;SDS011;8520;50.102;20.010;2023-04-09T21:35:21;46.40;;;42.50;;
16804;SDS011;8520;50.102;20.010;2023-04-09T21:37:49;45.80;;;41.90;;
16804;SDS011;8520;50.102;20.010;2023-04-09T21:40:18;46.87;;;42.97;;
16804;SDS011;8520;50.102;20.010;2023-04-09T21:42:46;46.43;;;42.63;;
16804;SDS011;8520;50.102;20.010;2023-04-09T21:45:14;47.47;;;43.47;;
16804;SDS011;8520;50.102;20.010;2023-04-09T21:47:43;48.27;;;44.27;;
16804;SDS011;8520;50.102;20.010;2023-04-09T21:50:11;48.73;;;44.67;;
16804;SDS011;8520;50.102;20.010;2023-04-09T21:52:43;47.33;;;43.37;;
16804;SDS011;8520;50.102;20.010;2023-04-09T21:55:11;47.43;;;43.57;;
16804;SDS011;8520;50.102;20.010;2023-04-09T21:57:39;50.13;;;45.90;;
16804;SDS011;8520;50.102;20.010;2023-04-09T22:00:07;51.20;;;46.97;;
16804;SDS011;8520;50.102;20.010;2023-04-09T22:02:36;52.93;;;48.20;;
16804;SDS011;8520;50.102;20.010;2023-04-09T22:05:05;50.20;;;46.20;;
16804;SDS011;8520;50.102;20.010;2023-04-09T22:07:34;50.57;;;46.43;;
16804;SDS011;8520;50.102;20.010;2023-04-09T22:10:04;52.70;;;48.30;;
16804;SDS011;8520;50.102;20.010;2023-04-09T22:12:33;53.07;;;48.87;;
16804;SDS011;8520;50.102;20.010;2023-04-09T22:15:03;54.00;;;49.60;;
16804;SDS011;8520;50.102;20.010;2023-04-09T22:17:32;53.87;;;49.37;;
16804;SDS011;8520;50.102;20.010;2023-04-09T22:20:00;54.83;;;50.43;;
16804;SDS011;8520;50.102;20.010;2023-04-09T22:22:28;55.23;;;50.73;;
16804;SDS011;8520;50.102;20.010;2023-04-09T22:24:56;56.17;;;51.60;;
16804;SDS011;8520;50.102;20.010;2023-04-09T22:27:26;54.07;;;49.80;;
16804;SDS011;8520;50.102;20.010;2023-04-09T22:29:54;57.73;;;52.90;;
16804;SDS011;8520;50.102;20.010;2023-04-09T22:32:22;56.00;;;51.27;;
16804;SDS011;8520;50.102;20.010;2023-04-09T22:34:50;56.20;;;51.53;;
16804;SDS011;8520;50.102;20.010;2023-04-09T22:37:19;56.87;;;52.27;;
16804;SDS011;8520;50.102;20.010;2023-04-09T22:39:47;57.27;;;52.70;;
16804;SDS011;8520;50.102;20.010;2023-04-09T22:42:15;57.40;;;52.70;;
16804;SDS011;8520;50.102;20.010;2023-04-09T22:44:44;57.33;;;52.63;;
16804;SDS011;8520;50.102;20.010;2023-04-09T22:47:12;57.63;;;52.93;;
16804;SDS011;8520;50.102;20.010;2023-04-09T22:49:40;57.90;;;53.30;;
16804;SDS011;8520;50.102;20.010;2023-04-09T22:52:09;57.33;;;52.73;;
16804;SDS011;8520;50.102;20.010;2023-04-09T22:54:37;59.40;;;54.53;;
16804;SDS011;8520;50.102;20.010;2023-04-09T22:57:08;58.00;;;53.33;;
16804;SDS011;8520;50.102;20.010;2023-04-09T22:59:36;60.93;;;56.00;;
16804;SDS011;8520;50.102;20.010;2023-04-09T23:02:07;58.80;;;54.13;;
16804;SDS011;8520;50.102;20.010;2023-04-09T23:04:36;61.57;;;56.57;;
16804;SDS011;8520;50.102;20.010;2023-04-09T23:07:04;61.03;;;56.13;;
16804;SDS011;8520;50.102;20.010;2023-04-09T23:09:32;62.15;;;57.05;;
16804;SDS011;8520;50.102;20.010;2023-04-09T23:12:00;61.97;;;56.80;;
16804;SDS011;8520;50.102;20.010;2023-04-09T23:14:28;61.73;;;56.63;;
16804;SDS011;8520;50.102;20.010;2023-04-09T23:16:56;62.03;;;56.83;;
16804;SDS011;8520;50.102;20.010;2023-04-09T23:19:26;64.57;;;59.33;;
16804;SDS011;8520;50.102;20.010;2023-04-09T23:21:54;63.97;;;58.77;;
16804;SDS011;8520;50.102;20.010;2023-04-09T23:24:22;61.93;;;57.07;;
16804;SDS011;8520;50.102;20.010;2023-04-09T23:26:50;63.97;;;58.83;;
16804;SDS011;8520;50.102;20.010;2023-04-09T23:29:18;64.20;;;59.20;;
16804;SDS011;8520;50.102;20.010;2023-04-09T23:31:46;62.70;;;57.50;;
16804;SDS011;8520;50.102;20.010;2023-04-09T23:34:15;63.00;;;57.90;;
16804;SDS011;8520;50.102;20.010;2023-04-09T23:36:44;63.27;;;58.07;;
16804;SDS011;8520;50.102;20.010;2023-04-09T23:39:12;64.27;;;59.07;;
16804;SDS011;8520;50.102;20.010;2023-04-09T23:41:40;63.70;;;58.53;;
16804;SDS011;8520;50.102;20.010;2023-04-09T23:44:08;61.90;;;56.77;;
16804;SDS011;8520;50.102;20.010;2023-04-09T23:46:36;63.13;;;57.93;;
16804;SDS011;8520;50.102;20.010;2023-04-09T23:49:04;62.43;;;57.47;;
16804;SDS011;8520;50.102;20.010;2023-04-09T23:51:32;61.97;;;57.00;;
16804;SDS011;8520;50.102;20.010;2023-04-09T23:54:02;61.43;;;56.40;;
16804;SDS011;8520;50.102;20.010;2023-04-09T23:56:30;59.00;;;54.37;;
16804;SDS011;8520;50.102;20.010;2023-04-09T23:58:58;61.27;;;55.93;;
